sensor_id;sensor_type;location;lat;lon;timestamp;P1;durP1;ratioP1;P2;durP2;ratioP2
12482;SDS011;6306;47.134;15.344;2022-10-17T00:01:51;25.87;;;14.43;;
12482;SDS011;6306;47.134;15.344;2022-10-17T00:04:18;25.30;;;13.87;;
12482;SDS011;6306;47.134;15.344;2022-10-17T00:06:44;24.63;;;14.60;;
12482;SDS011;6306;47.134;15.344;2022-10-17T00:09:10;17.40;;;12.90;;
12482;SDS011;6306;47.134;15.344;2022-10-17T00:11:36;20.33;;;12.27;;
12482;SDS011;6306;47.134;15.344;2022-10-17T00:14:02;17.27;;;12.43;;
12482;SDS011;6306;47.134;15.344;2022-10-17T00:16:29;19.30;;;13.60;;
12482;SDS011;6306;47.134;15.344;2022-10-17T00:18:56;17.13;;;13.20;;
12482;SDS011;6306;47.134;15.344;2022-10-17T00:21:23;19.50;;;13.60;;
12482;SDS011;6306;47.134;15.344;2022-10-17T00:23:49;21.13;;;14.03;;
12482;SDS011;6306;47.134;15.344;2022-10-17T00:26:15;18.50;;;13.20;;
12482;SDS011;6306;47.134;15.344;2022-10-17T00:28:41;18.07;;;12.73;;
12482;SDS011;6306;47.134;15.344;2022-10-17T00:31:07;24.00;;;13.30;;
12482;SDS011;6306;47.134;15.344;2022-10-17T00:33:34;20.03;;;13.40;;
12482;SDS011;6306;47.134;15.344;2022-10-17T00:38:29;21.17;;;16.47;;
12482;SDS011;6306;47.134;15.344;2022-10-17T00:40:55;19.20;;;11.80;;
12482;SDS011;6306;47.134;15.344;2022-10-17T00:43:21;16.07;;;12.77;;
12482;SDS011;6306;47.134;15.344;2022-10-17T00:45:47;18.50;;;13.87;;
12482;SDS011;6306;47.134;15.344;2022-10-17T00:48:13;23.80;;;14.10;;
12482;SDS011;6306;47.134;15.344;2022-10-17T00:50:40;20.50;;;12.20;;
12482;SDS011;6306;47.134;15.344;2022-10-17T00:53:07;16.03;;;11.07;;
12482;SDS011;6306;47.134;15.344;2022-10-17T00:55:34;20.20;;;12.93;;
12482;SDS011;6306;47.134;15.344;2022-10-17T00:58:02;18.83;;;11.83;;
12482;SDS011;6306;47.134;15.344;2022-10-17T01:00:29;15.37;;;11.90;;
12482;SDS011;6306;47.134;15.344;2022-10-17T01:02:55;18.90;;;13.23;;
12482;SDS011;6306;47.134;15.344;2022-10-17T01:05:21;17.00;;;12.93;;
12482;SDS011;6306;47.134;15.344;2022-10-17T01:07:48;18.03;;;12.30;;
12482;SDS011;6306;47.134;15.344;2022-10-17T01:10:15;16.73;;;12.97;;
12482;SDS011;6306;47.134;15.344;2022-10-17T01:12:47;19.70;;;13.27;;
12482;SDS011;6306;47.134;15.344;2022-10-17T01:20:27;18.50;;;13.43;;
12482;SDS011;6306;47.134;15.344;2022-10-17T01:25:43;17.77;;;11.80;;
12482;SDS011;6306;47.134;15.344;2022-10-17T01:28:31;18.40;;;12.73;;
12482;SDS011;6306;47.134;15.344;2022-10-17T01:31:03;21.63;;;13.30;;
12482;SDS011;6306;47.134;15.344;2022-10-17T01:38:48;26.20;;;12.47;;
12482;SDS011;6306;47.134;15.344;2022-10-17T01:41:39;20.23;;;14.07;;
12482;SDS011;6306;47.134;15.344;2022-10-17T01:44:08;16.00;;;12.17;;
12482;SDS011;6306;47.134;15.344;2022-10-17T01:46:40;19.53;;;12.13;;
12482;SDS011;6306;47.134;15.344;2022-10-17T01:49:08;19.93;;;13.37;;
12482;SDS011;6306;47.134;15.344;2022-10-17T01:54:50;16.80;;;13.03;;
12482;SDS011;6306;47.134;15.344;2022-10-17T01:56:58;16.10;;;13.07;;
12482;SDS011;6306;47.134;15.344;2022-10-17T01:59:28;16.23;;;12.20;;
12482;SDS011;6306;47.134;15.344;2022-10-17T02:01:56;18.83;;;11.87;;
12482;SDS011;6306;47.134;15.344;2022-10-17T02:04:23;16.27;;;11.63;;
12482;SDS011;6306;47.134;15.344;2022-10-17T02:06:49;14.97;;;10.70;;
12482;SDS011;6306;47.134;15.344;2022-10-17T02:11:47;21.80;;;14.00;;
12482;SDS011;6306;47.134;15.344;2022-10-17T02:16:56;17.20;;;12.40;;
12482;SDS011;6306;47.134;15.344;2022-10-17T02:26:53;18.63;;;11.90;;
12482;SDS011;6306;47.134;15.344;2022-10-17T02:29:21;16.50;;;13.03;;
12482;SDS011;6306;47.134;15.344;2022-10-17T02:31:57;21.80;;;11.13;;
12482;SDS011;6306;47.134;15.344;2022-10-17T02:34:26;19.10;;;12.67;;
12482;SDS011;6306;47.134;15.344;2022-10-17T02:36:55;21.40;;;13.03;;
12482;SDS011;6306;47.134;15.344;2022-10-17T02:39:23;15.57;;;11.83;;
12482;SDS011;6306;47.134;15.344;2022-10-17T02:41:50;20.73;;;11.20;;
12482;SDS011;6306;47.134;15.344;2022-10-17T02:44:17;18.40;;;12.40;;
12482;SDS011;6306;47.134;15.344;2022-10-17T02:46:44;17.40;;;13.07;;
12482;SDS011;6306;47.134;15.344;2022-10-17T02:49:16;17.17;;;9.80;;
12482;SDS011;6306;47.134;15.344;2022-10-17T02:54:32;15.07;;;12.27;;
12482;SDS011;6306;47.134;15.344;2022-10-17T02:59:37;22.33;;;12.57;;
12482;SDS011;6306;47.134;15.344;2022-10-17T03:02:05;19.50;;;11.87;;
12482;SDS011;6306;47.134;15.344;2022-10-17T03:04:32;18.10;;;12.00;;
12482;SDS011;6306;47.134;15.344;2022-10-17T03:06:58;17.13;;;12.23;;
12482;SDS011;6306;47.134;15.344;2022-10-17T03:09:24;21.77;;;12.10;;
12482;SDS011;6306;47.134;15.344;2022-10-17T03:11:51;15.83;;;11.60;;
12482;SDS011;6306;47.134;15.344;2022-10-17T03:14:17;17.03;;;12.33;;
12482;SDS011;6306;47.134;15.344;2022-10-17T03:16:43;18.07;;;10.90;;
12482;SDS011;6306;47.134;15.344;2022-10-17T03:19:09;19.70;;;10.80;;
12482;SDS011;6306;47.134;15.344;2022-10-17T03:21:35;17.10;;;12.30;;
12482;SDS011;6306;47.134;15.344;2022-10-17T03:24:02;14.70;;;10.93;;
12482;SDS011;6306;47.134;15.344;2022-10-17T03:26:28;16.13;;;11.10;;
12482;SDS011;6306;47.134;15.344;2022-10-17T03:28:54;22.47;;;12.57;;
12482;SDS011;6306;47.134;15.344;2022-10-17T03:31:20;14.97;;;10.70;;
12482;SDS011;6306;47.134;15.344;2022-10-17T03:33:46;16.80;;;11.30;;
12482;SDS011;6306;47.134;15.344;2022-10-17T03:36:13;15.53;;;10.50;;
12482;SDS011;6306;47.134;15.344;2022-10-17T03:38:40;22.17;;;11.33;;
12482;SDS011;6306;47.134;15.344;2022-10-17T03:41:06;15.20;;;12.37;;
12482;SDS011;6306;47.134;15.344;2022-10-17T03:43:32;24.57;;;11.63;;
12482;SDS011;6306;47.134;15.344;2022-10-17T03:45:59;15.97;;;9.80;;
12482;SDS011;6306;47.134;15.344;2022-10-17T03:48:25;15.57;;;11.37;;
12482;SDS011;6306;47.134;15.344;2022-10-17T03:50:57;13.80;;;10.30;;
12482;SDS011;6306;47.134;15.344;2022-10-17T03:53:23;15.97;;;11.20;;
12482;SDS011;6306;47.134;15.344;2022-10-17T03:55:49;23.67;;;12.40;;
12482;SDS011;6306;47.134;15.344;2022-10-17T03:58:15;17.63;;;11.47;;
12482;SDS011;6306;47.134;15.344;2022-10-17T04:00:41;15.90;;;10.20;;
12482;SDS011;6306;47.134;15.344;2022-10-17T04:03:07;21.23;;;12.30;;
12482;SDS011;6306;47.134;15.344;2022-10-17T04:05:33;15.30;;;10.10;;
12482;SDS011;6306;47.134;15.344;2022-10-17T04:07:59;17.43;;;11.73;;
12482;SDS011;6306;47.134;15.344;2022-10-17T04:10:25;15.70;;;11.23;;
12482;SDS011;6306;47.134;15.344;2022-10-17T04:12:51;16.73;;;10.83;;
12482;SDS011;6306;47.134;15.344;2022-10-17T04:15:17;16.83;;;11.53;;
12482;SDS011;6306;47.134;15.344;2022-10-17T04:17:43;19.80;;;11.47;;
12482;SDS011;6306;47.134;15.344;2022-10-17T04:20:09;14.43;;;9.67;;
12482;SDS011;6306;47.134;15.344;2022-10-17T04:22:35;17.03;;;11.37;;
12482;SDS011;6306;47.134;15.344;2022-10-17T04:25:01;23.17;;;12.73;;
12482;SDS011;6306;47.134;15.344;2022-10-17T04:27:27;15.20;;;10.27;;
12482;SDS011;6306;47.134;15.344;2022-10-17T04:29:53;22.03;;;12.23;;
12482;SDS011;6306;47.134;15.344;2022-10-17T04:32:19;18.30;;;11.23;;
12482;SDS011;6306;47.134;15.344;2022-10-17T04:34:48;15.80;;;10.70;;
12482;SDS011;6306;47.134;15.344;2022-10-17T04:37:14;14.53;;;11.27;;
12482;SDS011;6306;47.134;15.344;2022-10-17T04:39:40;17.87;;;10.63;;
12482;SDS011;6306;47.134;15.344;2022-10-17T04:42:06;18.93;;;10.57;;
12482;SDS011;6306;47.134;15.344;2022-10-17T04:44:32;16.10;;;11.07;;
12482;SDS011;6306;47.134;15.344;2022-10-17T04:46:59;15.23;;;10.83;;
12482;SDS011;6306;47.134;15.344;2022-10-17T04:49:25;20.30;;;9.80;;
12482;SDS011;6306;47.134;15.344;2022-10-17T04:51:51;27.57;;;11.10;;
12482;SDS011;6306;47.134;15.344;2022-10-17T04:54:17;13.63;;;9.80;;
12482;SDS011;6306;47.134;15.344;2022-10-17T04:56:43;15.53;;;9.27;;
12482;SDS011;6306;47.134;15.344;2022-10-17T04:59:11;22.77;;;12.10;;
12482;SDS011;6306;47.134;15.344;2022-10-17T05:01:37;16.70;;;11.03;;
12482;SDS011;6306;47.134;15.344;2022-10-17T05:04:03;17.80;;;10.37;;
12482;SDS011;6306;47.134;15.344;2022-10-17T05:06:29;20.20;;;12.03;;
12482;SDS011;6306;47.134;15.344;2022-10-17T05:08:56;13.80;;;9.33;;
12482;SDS011;6306;47.134;15.344;2022-10-17T05:11:24;16.40;;;10.70;;
12482;SDS011;6306;47.134;15.344;2022-10-17T05:13:51;21.93;;;11.37;;
12482;SDS011;6306;47.134;15.344;2022-10-17T05:16:18;12.47;;;9.80;;
12482;SDS011;6306;47.134;15.344;2022-10-17T05:18:46;20.30;;;11.77;;
12482;SDS011;6306;47.134;15.344;2022-10-17T05:21:13;15.70;;;11.57;;
12482;SDS011;6306;47.134;15.344;2022-10-17T05:23:39;14.93;;;10.83;;
12482;SDS011;6306;47.134;15.344;2022-10-17T05:26:05;16.00;;;9.43;;
12482;SDS011;6306;47.134;15.344;2022-10-17T05:28:31;17.10;;;10.50;;
12482;SDS011;6306;47.134;15.344;2022-10-17T05:30:57;16.97;;;10.27;;
12482;SDS011;6306;47.134;15.344;2022-10-17T05:33:26;15.00;;;10.77;;
12482;SDS011;6306;47.134;15.344;2022-10-17T05:35:52;16.40;;;11.53;;
12482;SDS011;6306;47.134;15.344;2022-10-17T05:38:18;16.63;;;9.57;;
12482;SDS011;6306;47.134;15.344;2022-10-17T05:40:44;20.33;;;11.23;;
12482;SDS011;6306;47.134;15.344;2022-10-17T05:43:10;15.77;;;10.63;;
12482;SDS011;6306;47.134;15.344;2022-10-17T05:45:36;37.03;;;12.20;;
12482;SDS011;6306;47.134;15.344;2022-10-17T05:48:02;17.90;;;11.37;;
12482;SDS011;6306;47.134;15.344;2022-10-17T05:50:28;22.47;;;13.60;;
12482;SDS011;6306;47.134;15.344;2022-10-17T05:52:54;19.63;;;10.70;;
12482;SDS011;6306;47.134;15.344;2022-10-17T05:55:21;18.60;;;12.00;;
12482;SDS011;6306;47.134;15.344;2022-10-17T05:57:47;19.87;;;10.80;;
12482;SDS011;6306;47.134;15.344;2022-10-17T06:00:14;17.43;;;11.30;;
12482;SDS011;6306;47.134;15.344;2022-10-17T06:02:41;19.47;;;11.37;;
12482;SDS011;6306;47.134;15.344;2022-10-17T06:05:09;17.73;;;12.30;;
12482;SDS011;6306;47.134;15.344;2022-10-17T06:07:36;24.53;;;10.33;;
12482;SDS011;6306;47.134;15.344;2022-10-17T06:10:02;18.97;;;10.40;;
12482;SDS011;6306;47.134;15.344;2022-10-17T06:12:28;14.60;;;10.50;;
12482;SDS011;6306;47.134;15.344;2022-10-17T06:14:54;16.73;;;11.10;;
12482;SDS011;6306;47.134;15.344;2022-10-17T06:17:20;17.07;;;9.90;;
12482;SDS011;6306;47.134;15.344;2022-10-17T06:19:46;15.60;;;9.80;;
12482;SDS011;6306;47.134;15.344;2022-10-17T06:22:12;19.50;;;10.20;;
12482;SDS011;6306;47.134;15.344;2022-10-17T06:24:38;18.63;;;10.47;;
12482;SDS011;6306;47.134;15.344;2022-10-17T06:27:04;19.70;;;10.60;;
12482;SDS011;6306;47.134;15.344;2022-10-17T06:29:30;22.00;;;10.40;;
12482;SDS011;6306;47.134;15.344;2022-10-17T06:31:56;18.60;;;11.20;;
12482;SDS011;6306;47.134;15.344;2022-10-17T06:34:22;17.93;;;10.83;;
12482;SDS011;6306;47.134;15.344;2022-10-17T06:36:48;24.17;;;13.60;;
12482;SDS011;6306;47.134;15.344;2022-10-17T06:39:14;21.33;;;13.13;;
12482;SDS011;6306;47.134;15.344;2022-10-17T06:41:40;15.30;;;11.77;;
12482;SDS011;6306;47.134;15.344;2022-10-17T06:44:08;19.40;;;12.00;;
12482;SDS011;6306;47.134;15.344;2022-10-17T06:46:37;20.13;;;13.47;;
12482;SDS011;6306;47.134;15.344;2022-10-17T06:49:04;17.67;;;12.27;;
12482;SDS011;6306;47.134;15.344;2022-10-17T06:51:30;19.17;;;13.13;;
12482;SDS011;6306;47.134;15.344;2022-10-17T06:53:57;18.27;;;12.93;;
12482;SDS011;6306;47.134;15.344;2022-10-17T06:56:23;21.80;;;13.47;;
12482;SDS011;6306;47.134;15.344;2022-10-17T06:58:49;25.20;;;15.03;;
12482;SDS011;6306;47.134;15.344;2022-10-17T07:01:16;30.17;;;14.23;;
12482;SDS011;6306;47.134;15.344;2022-10-17T07:03:42;27.23;;;14.87;;
12482;SDS011;6306;47.134;15.344;2022-10-17T07:06:12;25.23;;;14.30;;
12482;SDS011;6306;47.134;15.344;2022-10-17T07:08:41;27.10;;;14.93;;
12482;SDS011;6306;47.134;15.344;2022-10-17T07:11:09;21.97;;;14.50;;
12482;SDS011;6306;47.134;15.344;2022-10-17T07:13:35;17.80;;;12.73;;
12482;SDS011;6306;47.134;15.344;2022-10-17T07:16:01;21.83;;;14.27;;
12482;SDS011;6306;47.134;15.344;2022-10-17T07:18:27;21.80;;;13.47;;
12482;SDS011;6306;47.134;15.344;2022-10-17T07:20:54;25.83;;;12.43;;
12482;SDS011;6306;47.134;15.344;2022-10-17T07:23:20;18.37;;;11.43;;
12482;SDS011;6306;47.134;15.344;2022-10-17T07:25:47;15.97;;;11.00;;
12482;SDS011;6306;47.134;15.344;2022-10-17T07:28:13;18.73;;;11.33;;
12482;SDS011;6306;47.134;15.344;2022-10-17T07:30:39;18.27;;;13.13;;
12482;SDS011;6306;47.134;15.344;2022-10-17T07:33:05;16.50;;;10.57;;
12482;SDS011;6306;47.134;15.344;2022-10-17T07:35:31;19.67;;;11.03;;
12482;SDS011;6306;47.134;15.344;2022-10-17T07:37:57;16.70;;;11.80;;
12482;SDS011;6306;47.134;15.344;2022-10-17T07:40:23;17.60;;;11.40;;
12482;SDS011;6306;47.134;15.344;2022-10-17T07:42:49;15.97;;;10.73;;
12482;SDS011;6306;47.134;15.344;2022-10-17T07:45:15;15.93;;;12.10;;
12482;SDS011;6306;47.134;15.344;2022-10-17T07:47:41;17.20;;;11.77;;
12482;SDS011;6306;47.134;15.344;2022-10-17T07:50:08;18.33;;;11.63;;
12482;SDS011;6306;47.134;15.344;2022-10-17T07:52:34;16.00;;;11.00;;
12482;SDS011;6306;47.134;15.344;2022-10-17T07:55:00;17.17;;;11.60;;
12482;SDS011;6306;47.134;15.344;2022-10-17T07:57:26;15.43;;;11.93;;
12482;SDS011;6306;47.134;15.344;2022-10-17T07:59:52;13.47;;;10.50;;
12482;SDS011;6306;47.134;15.344;2022-10-17T08:02:23;17.33;;;11.70;;
12482;SDS011;6306;47.134;15.344;2022-10-17T08:04:49;14.60;;;10.87;;
12482;SDS011;6306;47.134;15.344;2022-10-17T08:07:15;15.37;;;10.37;;
12482;SDS011;6306;47.134;15.344;2022-10-17T08:09:42;20.17;;;11.23;;
12482;SDS011;6306;47.134;15.344;2022-10-17T08:12:08;15.13;;;9.60;;
12482;SDS011;6306;47.134;15.344;2022-10-17T08:14:34;16.43;;;10.30;;
12482;SDS011;6306;47.134;15.344;2022-10-17T08:17:01;16.30;;;10.97;;
12482;SDS011;6306;47.134;15.344;2022-10-17T08:19:27;14.03;;;10.40;;
12482;SDS011;6306;47.134;15.344;2022-10-17T08:21:53;16.47;;;10.43;;
12482;SDS011;6306;47.134;15.344;2022-10-17T08:24:19;13.00;;;9.30;;
12482;SDS011;6306;47.134;15.344;2022-10-17T08:26:45;17.20;;;9.60;;
12482;SDS011;6306;47.134;15.344;2022-10-17T08:29:14;13.10;;;9.83;;
12482;SDS011;6306;47.134;15.344;2022-10-17T08:31:40;20.00;;;10.17;;
12482;SDS011;6306;47.134;15.344;2022-10-17T08:34:06;13.17;;;8.60;;
12482;SDS011;6306;47.134;15.344;2022-10-17T08:36:32;14.60;;;10.27;;
12482;SDS011;6306;47.134;15.344;2022-10-17T08:38:58;18.03;;;11.47;;
12482;SDS011;6306;47.134;15.344;2022-10-17T08:46:19;17.23;;;10.67;;
12482;SDS011;6306;47.134;15.344;2022-10-17T08:48:46;13.03;;;9.30;;
12482;SDS011;6306;47.134;15.344;2022-10-17T08:53:40;14.67;;;10.40;;
12482;SDS011;6306;47.134;15.344;2022-10-17T08:56:14;13.50;;;9.63;;
12482;SDS011;6306;47.134;15.344;2022-10-17T08:58:41;12.87;;;7.80;;
12482;SDS011;6306;47.134;15.344;2022-10-17T09:06:21;13.17;;;8.70;;
12482;SDS011;6306;47.134;15.344;2022-10-17T09:09:33;12.43;;;8.43;;
12482;SDS011;6306;47.134;15.344;2022-10-17T09:19:28;10.90;;;8.70;;
12482;SDS011;6306;47.134;15.344;2022-10-17T09:22:00;11.40;;;7.90;;
12482;SDS011;6306;47.134;15.344;2022-10-17T09:24:50;12.10;;;8.47;;
12482;SDS011;6306;47.134;15.344;2022-10-17T09:27:32;13.97;;;9.50;;
12482;SDS011;6306;47.134;15.344;2022-10-17T09:30:13;12.90;;;8.73;;
12482;SDS011;6306;47.134;15.344;2022-10-17T09:32:40;16.43;;;10.10;;
12482;SDS011;6306;47.134;15.344;2022-10-17T09:35:16;14.90;;;9.30;;
12482;SDS011;6306;47.134;15.344;2022-10-17T09:37:42;15.57;;;9.53;;
12482;SDS011;6306;47.134;15.344;2022-10-17T09:40:16;20.40;;;10.80;;
12482;SDS011;6306;47.134;15.344;2022-10-17T09:42:43;13.33;;;10.60;;
12482;SDS011;6306;47.134;15.344;2022-10-17T09:47:38;22.90;;;12.73;;
12482;SDS011;6306;47.134;15.344;2022-10-17T09:50:14;19.03;;;14.50;;
12482;SDS011;6306;47.134;15.344;2022-10-17T09:52:41;22.03;;;13.13;;
12482;SDS011;6306;47.134;15.344;2022-10-17T09:57:58;23.87;;;13.50;;
12482;SDS011;6306;47.134;15.344;2022-10-17T10:00:25;17.83;;;12.80;;
12482;SDS011;6306;47.134;15.344;2022-10-17T10:03:14;17.50;;;12.90;;
12482;SDS011;6306;47.134;15.344;2022-10-17T10:05:38;16.43;;;12.40;;
12482;SDS011;6306;47.134;15.344;2022-10-17T10:08:05;22.33;;;14.03;;
12482;SDS011;6306;47.134;15.344;2022-10-17T10:10:37;19.07;;;12.77;;
12482;SDS011;6306;47.134;15.344;2022-10-17T10:15:43;18.27;;;12.90;;
12482;SDS011;6306;47.134;15.344;2022-10-17T10:23:32;19.53;;;14.80;;
12482;SDS011;6306;47.134;15.344;2022-10-17T10:26:00;21.83;;;16.07;;
12482;SDS011;6306;47.134;15.344;2022-10-17T10:28:31;22.53;;;15.90;;
12482;SDS011;6306;47.134;15.344;2022-10-17T10:30:58;21.30;;;17.27;;
12482;SDS011;6306;47.134;15.344;2022-10-17T10:33:26;25.63;;;18.40;;
12482;SDS011;6306;47.134;15.344;2022-10-17T10:35:54;24.10;;;16.97;;
12482;SDS011;6306;47.134;15.344;2022-10-17T10:38:20;23.40;;;17.30;;
12482;SDS011;6306;47.134;15.344;2022-10-17T10:40:47;27.90;;;18.43;;
12482;SDS011;6306;47.134;15.344;2022-10-17T10:43:21;26.37;;;17.20;;
12482;SDS011;6306;47.134;15.344;2022-10-17T10:45:48;25.33;;;17.00;;
12482;SDS011;6306;47.134;15.344;2022-10-17T10:51:15;28.40;;;17.77;;
12482;SDS011;6306;47.134;15.344;2022-10-17T10:53:57;24.40;;;17.57;;
12482;SDS011;6306;47.134;15.344;2022-10-17T10:56:28;30.50;;;18.87;;
12482;SDS011;6306;47.134;15.344;2022-10-17T10:58:59;28.07;;;16.47;;
12482;SDS011;6306;47.134;15.344;2022-10-17T11:06:29;27.63;;;19.43;;
12482;SDS011;6306;47.134;15.344;2022-10-17T11:09:12;20.73;;;15.27;;
12482;SDS011;6306;47.134;15.344;2022-10-17T11:11:42;21.43;;;15.37;;
12482;SDS011;6306;47.134;15.344;2022-10-17T11:14:17;19.00;;;14.67;;
12482;SDS011;6306;47.134;15.344;2022-10-17T11:19:32;19.03;;;15.10;;
12482;SDS011;6306;47.134;15.344;2022-10-17T11:22:02;19.50;;;14.73;;
12482;SDS011;6306;47.134;15.344;2022-10-17T11:24:33;19.33;;;15.10;;
12482;SDS011;6306;47.134;15.344;2022-10-17T11:27:02;20.03;;;15.67;;
12482;SDS011;6306;47.134;15.344;2022-10-17T11:29:30;16.90;;;12.70;;
12482;SDS011;6306;47.134;15.344;2022-10-17T11:31:58;18.43;;;14.27;;
12482;SDS011;6306;47.134;15.344;2022-10-17T11:34:26;23.70;;;15.63;;
12482;SDS011;6306;47.134;15.344;2022-10-17T11:37:00;19.83;;;12.13;;
12482;SDS011;6306;47.134;15.344;2022-10-17T11:41:53;18.60;;;13.83;;
12482;SDS011;6306;47.134;15.344;2022-10-17T11:44:25;16.87;;;13.10;;
12482;SDS011;6306;47.134;15.344;2022-10-17T11:46:55;18.37;;;13.43;;
12482;SDS011;6306;47.134;15.344;2022-10-17T11:49:36;20.57;;;15.17;;
12482;SDS011;6306;47.134;15.344;2022-10-17T11:54:48;16.27;;;14.10;;
12482;SDS011;6306;47.134;15.344;2022-10-17T11:57:31;22.90;;;15.07;;
12482;SDS011;6306;47.134;15.344;2022-10-17T12:12:45;19.77;;;12.73;;
12482;SDS011;6306;47.134;15.344;2022-10-17T12:17:39;19.47;;;13.00;;
12482;SDS011;6306;47.134;15.344;2022-10-17T12:27:48;16.20;;;13.40;;
12482;SDS011;6306;47.134;15.344;2022-10-17T12:30:16;18.93;;;14.67;;
12482;SDS011;6306;47.134;15.344;2022-10-17T12:32:52;19.50;;;14.53;;
12482;SDS011;6306;47.134;15.344;2022-10-17T12:35:20;19.17;;;14.20;;
12482;SDS011;6306;47.134;15.344;2022-10-17T12:40:46;18.90;;;14.50;;
12482;SDS011;6306;47.134;15.344;2022-10-17T12:45:53;19.37;;;13.80;;
12482;SDS011;6306;47.134;15.344;2022-10-17T12:51:15;17.83;;;13.43;;
12482;SDS011;6306;47.134;15.344;2022-10-17T12:56:18;16.90;;;12.50;;
12482;SDS011;6306;47.134;15.344;2022-10-17T12:58:45;16.80;;;12.20;;
12482;SDS011;6306;47.134;15.344;2022-10-17T13:01:21;16.07;;;13.63;;
12482;SDS011;6306;47.134;15.344;2022-10-17T13:03:51;17.67;;;12.93;;
12482;SDS011;6306;47.134;15.344;2022-10-17T13:06:24;16.97;;;13.03;;
12482;SDS011;6306;47.134;15.344;2022-10-17T13:08:54;17.43;;;12.80;;
12482;SDS011;6306;47.134;15.344;2022-10-17T13:11:22;17.70;;;12.20;;
12482;SDS011;6306;47.134;15.344;2022-10-17T13:13:49;18.57;;;13.83;;
12482;SDS011;6306;47.134;15.344;2022-10-17T13:19:17;17.17;;;13.20;;
12482;SDS011;6306;47.134;15.344;2022-10-17T13:24:36;15.30;;;12.90;;
12482;SDS011;6306;47.134;15.344;2022-10-17T13:27:03;18.30;;;13.93;;
12482;SDS011;6306;47.134;15.344;2022-10-17T13:29:30;17.50;;;14.60;;
12482;SDS011;6306;47.134;15.344;2022-10-17T13:32:03;18.67;;;13.93;;
12482;SDS011;6306;47.134;15.344;2022-10-17T13:34:30;16.47;;;12.43;;
12482;SDS011;6306;47.134;15.344;2022-10-17T13:36:58;17.43;;;13.77;;
12482;SDS011;6306;47.134;15.344;2022-10-17T13:39:25;19.33;;;15.30;;
12482;SDS011;6306;47.134;15.344;2022-10-17T13:41:52;19.47;;;14.00;;
12482;SDS011;6306;47.134;15.344;2022-10-17T13:44:19;19.77;;;14.30;;
12482;SDS011;6306;47.134;15.344;2022-10-17T13:46:46;16.53;;;14.53;;
12482;SDS011;6306;47.134;15.344;2022-10-17T13:49:22;15.33;;;13.00;;
12482;SDS011;6306;47.134;15.344;2022-10-17T13:51:51;21.70;;;15.93;;
12482;SDS011;6306;47.134;15.344;2022-10-17T13:56:59;16.20;;;14.20;;
12482;SDS011;6306;47.134;15.344;2022-10-17T13:59:33;18.67;;;15.57;;
12482;SDS011;6306;47.134;15.344;2022-10-17T14:02:01;18.80;;;15.07;;
12482;SDS011;6306;47.134;15.344;2022-10-17T14:04:28;20.87;;;15.70;;
12482;SDS011;6306;47.134;15.344;2022-10-17T14:06:54;17.77;;;14.67;;
12482;SDS011;6306;47.134;15.344;2022-10-17T14:09:21;21.17;;;15.60;;
12482;SDS011;6306;47.134;15.344;2022-10-17T14:14:23;19.37;;;15.13;;
12482;SDS011;6306;47.134;15.344;2022-10-17T14:16:50;21.33;;;13.70;;
12482;SDS011;6306;47.134;15.344;2022-10-17T14:19:37;18.60;;;14.40;;
12482;SDS011;6306;47.134;15.344;2022-10-17T14:22:16;19.13;;;14.83;;
12482;SDS011;6306;47.134;15.344;2022-10-17T14:24:43;19.50;;;15.57;;
12482;SDS011;6306;47.134;15.344;2022-10-17T14:29:55;19.57;;;16.50;;
12482;SDS011;6306;47.134;15.344;2022-10-17T14:32:24;19.27;;;14.13;;
12482;SDS011;6306;47.134;15.344;2022-10-17T14:34:52;20.30;;;15.43;;
12482;SDS011;6306;47.134;15.344;2022-10-17T14:39:53;17.83;;;14.90;;
12482;SDS011;6306;47.134;15.344;2022-10-17T14:42:20;20.10;;;16.53;;
12482;SDS011;6306;47.134;15.344;2022-10-17T14:44:50;21.53;;;15.67;;
12482;SDS011;6306;47.134;15.344;2022-10-17T14:47:18;21.43;;;17.07;;
12482;SDS011;6306;47.134;15.344;2022-10-17T14:49:47;25.67;;;17.17;;
12482;SDS011;6306;47.134;15.344;2022-10-17T14:54:40;22.27;;;16.47;;
12482;SDS011;6306;47.134;15.344;2022-10-17T14:57:14;20.93;;;16.17;;
12482;SDS011;6306;47.134;15.344;2022-10-17T14:59:41;19.77;;;15.60;;
12482;SDS011;6306;47.134;15.344;2022-10-17T15:02:08;27.53;;;18.10;;
12482;SDS011;6306;47.134;15.344;2022-10-17T15:04:34;20.97;;;16.87;;
12482;SDS011;6306;47.134;15.344;2022-10-17T15:07:00;19.10;;;15.40;;
12482;SDS011;6306;47.134;15.344;2022-10-17T15:09:26;22.97;;;17.10;;
12482;SDS011;6306;47.134;15.344;2022-10-17T15:11:54;20.30;;;17.37;;
12482;SDS011;6306;47.134;15.344;2022-10-17T15:14:20;20.43;;;16.60;;
12482;SDS011;6306;47.134;15.344;2022-10-17T15:16:46;19.70;;;15.97;;
12482;SDS011;6306;47.134;15.344;2022-10-17T15:19:12;23.60;;;18.00;;
12482;SDS011;6306;47.134;15.344;2022-10-17T15:21:38;28.07;;;19.77;;
12482;SDS011;6306;47.134;15.344;2022-10-17T15:24:04;24.80;;;19.07;;
12482;SDS011;6306;47.134;15.344;2022-10-17T15:26:31;29.50;;;18.20;;
12482;SDS011;6306;47.134;15.344;2022-10-17T15:28:58;24.40;;;18.30;;
12482;SDS011;6306;47.134;15.344;2022-10-17T15:31:25;24.77;;;18.43;;
12482;SDS011;6306;47.134;15.344;2022-10-17T15:33:52;25.63;;;18.83;;
12482;SDS011;6306;47.134;15.344;2022-10-17T15:36:18;26.43;;;19.93;;
12482;SDS011;6306;47.134;15.344;2022-10-17T15:38:45;23.73;;;18.37;;
12482;SDS011;6306;47.134;15.344;2022-10-17T15:41:11;27.57;;;20.40;;
12482;SDS011;6306;47.134;15.344;2022-10-17T15:43:37;25.30;;;18.47;;
12482;SDS011;6306;47.134;15.344;2022-10-17T15:46:05;26.50;;;19.00;;
12482;SDS011;6306;47.134;15.344;2022-10-17T15:48:34;26.83;;;18.97;;
12482;SDS011;6306;47.134;15.344;2022-10-17T15:51:00;25.83;;;19.80;;
12482;SDS011;6306;47.134;15.344;2022-10-17T15:53:26;25.03;;;18.63;;
12482;SDS011;6306;47.134;15.344;2022-10-17T15:55:52;26.80;;;19.57;;
12482;SDS011;6306;47.134;15.344;2022-10-17T15:58:18;27.70;;;20.33;;
12482;SDS011;6306;47.134;15.344;2022-10-17T16:00:44;27.73;;;18.73;;
12482;SDS011;6306;47.134;15.344;2022-10-17T16:03:11;32.13;;;21.53;;
12482;SDS011;6306;47.134;15.344;2022-10-17T16:05:38;27.03;;;19.43;;
12482;SDS011;6306;47.134;15.344;2022-10-17T16:08:04;24.33;;;17.23;;
12482;SDS011;6306;47.134;15.344;2022-10-17T16:10:30;24.17;;;18.07;;
12482;SDS011;6306;47.134;15.344;2022-10-17T16:12:56;26.13;;;17.33;;
12482;SDS011;6306;47.134;15.344;2022-10-17T16:15:23;22.13;;;17.30;;
12482;SDS011;6306;47.134;15.344;2022-10-17T16:17:50;21.37;;;17.20;;
12482;SDS011;6306;47.134;15.344;2022-10-17T16:20:16;21.87;;;15.53;;
12482;SDS011;6306;47.134;15.344;2022-10-17T16:22:43;23.93;;;18.77;;
12482;SDS011;6306;47.134;15.344;2022-10-17T16:25:19;26.13;;;18.77;;
12482;SDS011;6306;47.134;15.344;2022-10-17T16:27:46;23.70;;;17.67;;
12482;SDS011;6306;47.134;15.344;2022-10-17T16:30:13;21.37;;;17.33;;
12482;SDS011;6306;47.134;15.344;2022-10-17T16:32:39;21.33;;;15.70;;
12482;SDS011;6306;47.134;15.344;2022-10-17T16:35:05;21.90;;;17.40;;
12482;SDS011;6306;47.134;15.344;2022-10-17T16:37:31;20.80;;;15.13;;
12482;SDS011;6306;47.134;15.344;2022-10-17T16:39:57;26.30;;;17.27;;
12482;SDS011;6306;47.134;15.344;2022-10-17T16:42:24;22.37;;;16.27;;
12482;SDS011;6306;47.134;15.344;2022-10-17T16:44:50;24.80;;;16.67;;
12482;SDS011;6306;47.134;15.344;2022-10-17T16:47:17;24.40;;;17.43;;